Terminal Aerodrome Forecast
Issued by NWS

Home | Current Version | Previous Version | Text Only | Print | Product List | Glossary On
Versions: 1 2 3 4 5 6 7 8 9 10 11 12 13 14 15 16 17 18 19 20 21
000
FTUS46 KLOX 181200 AAA
TAFLGB
TAF AMD
KLGB 181234Z 1813/1912 VRB03KT P6SM BKN035
     FM181800 19009KT P6SM OVC035
     FM190400 VRB03KT P6SM OVC025=

USA.gov is the U.S. government's official web portal to all federal, state and local government web resources and services.